createdAt,value
2016-03-30T00:00:49.529Z,964.43
2016-03-30T00:01:49.532Z,964.44
2016-03-30T00:02:49.534Z,964.45
2016-03-30T00:03:49.537Z,964.51
2016-03-30T00:04:49.540Z,964.51
2016-03-30T00:05:49.527Z,964.47
2016-03-30T00:06:49.530Z,964.46
2016-03-30T00:07:49.533Z,964.44
2016-03-30T00:08:49.536Z,964.43
2016-03-30T00:09:49.538Z,964.42
2016-03-30T00:10:49.541Z,964.4
2016-03-30T00:11:49.544Z,964.43
2016-03-30T00:12:49.547Z,964.34
2016-03-30T00:13:49.533Z,964.33
2016-03-30T00:14:49.535Z,964.28
2016-03-30T00:15:49.539Z,964.3
2016-03-30T00:16:49.541Z,964.27
2016-03-30T00:17:49.544Z,964.29
2016-03-30T00:18:49.547Z,964.25
2016-03-30T00:19:49.550Z,964.27
2016-03-30T00:20:49.536Z,964.34
2016-03-30T00:21:49.538Z,964.31
2016-03-30T00:22:49.542Z,964.36
2016-03-30T00:23:49.544Z,964.37
2016-03-30T00:24:49.547Z,964.35
2016-03-30T00:25:49.534Z,964.3
2016-03-30T00:26:49.552Z,964.32
2016-03-30T00:27:49.540Z,964.28
2016-03-30T00:28:49.542Z,964.24
2016-03-30T00:29:49.545Z,964.24
2016-03-30T00:30:49.548Z,964.23
2016-03-30T00:31:49.550Z,964.24
2016-03-30T00:32:49.537Z,964.2
2016-03-30T00:33:49.539Z,964.19
2016-03-30T00:34:49.542Z,964.15
2016-03-30T00:35:49.545Z,964.15
2016-03-30T00:36:49.547Z,964.17
2016-03-30T00:37:49.551Z,964.14
2016-03-30T00:38:49.553Z,964.19
2016-03-30T00:39:49.556Z,964.22
2016-03-30T00:40:49.543Z,964.18
2016-03-30T00:41:49.545Z,964.18
2016-03-30T00:42:49.548Z,964.3
2016-03-30T00:43:49.550Z,964.32
2016-03-30T00:44:49.664Z,964.28
2016-03-30T00:45:49.556Z,964.28
2016-03-30T00:46:49.544Z,964.29
2016-03-30T00:47:49.546Z,964.27
2016-03-30T00:48:49.549Z,964.27
2016-03-30T00:49:49.552Z,964.23
2016-03-30T00:50:49.555Z,964.19
2016-03-30T00:51:49.558Z,964.2
2016-03-30T00:52:49.544Z,964.2
2016-03-30T00:53:49.546Z,964.19
2016-03-30T00:54:49.549Z,964.17
2016-03-30T00:55:49.552Z,964.12
2016-03-30T00:56:49.555Z,964.09
2016-03-30T00:57:49.557Z,964.07
2016-03-30T00:58:49.560Z,964.07
2016-03-30T00:59:49.579Z,964.08
2016-03-30T01:00:49.550Z,964.08
2016-03-30T01:01:49.554Z,964.05
2016-03-30T01:02:49.556Z,964.07
2016-03-30T01:03:49.559Z,964.09
2016-03-30T01:04:49.561Z,964.1
2016-03-30T01:05:49.564Z,964.04
2016-03-30T01:06:49.564Z,963.99
2016-03-30T01:07:49.540Z,964.02
2016-03-30T01:08:49.532Z,964.06
2016-03-30T01:09:49.524Z,964.04
2016-03-30T01:10:49.516Z,964.07
2016-03-30T01:11:49.526Z,964.05
2016-03-30T01:12:49.508Z,964.04
2016-03-30T01:13:49.490Z,964.06
2016-03-30T01:14:49.521Z,964.09
2016-03-30T01:15:49.487Z,964.08
2016-03-30T01:16:49.486Z,964.01
2016-03-30T01:17:49.487Z,964.06
2016-03-30T01:18:49.488Z,964
2016-03-30T01:19:49.475Z,964.01
2016-03-30T01:20:49.476Z,964.02
2016-03-30T01:21:49.477Z,964.02
2016-03-30T01:22:49.480Z,964.02
2016-03-30T01:23:49.482Z,963.99
2016-03-30T01:24:49.484Z,963.97
2016-03-30T01:25:49.486Z,963.95
2016-03-30T01:26:49.473Z,963.96
2016-03-30T01:27:49.476Z,963.94
2016-03-30T01:28:49.478Z,963.98
2016-03-30T01:29:49.575Z,963.95
2016-03-30T01:30:49.484Z,963.91
2016-03-30T01:31:49.486Z,963.93
2016-03-30T01:32:49.473Z,963.93
2016-03-30T01:33:49.492Z,963.88
2016-03-30T01:34:49.479Z,963.86
2016-03-30T01:35:49.481Z,963.85
2016-03-30T01:36:49.483Z,963.82
2016-03-30T01:37:49.486Z,963.82
2016-03-30T01:38:49.489Z,963.81
2016-03-30T01:39:49.492Z,963.78
2016-03-30T01:40:49.495Z,963.77
2016-03-30T01:41:49.482Z,963.78
2016-03-30T01:42:49.485Z,963.83
2016-03-30T01:43:49.487Z,963.81
2016-03-30T01:44:49.506Z,963.85
2016-03-30T01:45:49.493Z,963.83
2016-03-30T01:46:49.496Z,963.86
2016-03-30T01:47:49.482Z,963.85
2016-03-30T01:48:49.486Z,963.84
2016-03-30T01:49:49.488Z,963.85
2016-03-30T01:50:49.491Z,963.87
2016-03-30T01:51:49.494Z,963.92
2016-03-30T01:52:49.496Z,963.9
2016-03-30T01:53:49.498Z,963.88
2016-03-30T01:54:49.486Z,963.89
2016-03-30T01:55:49.489Z,963.89
2016-03-30T01:56:49.492Z,963.87
2016-03-30T01:57:49.495Z,963.88
2016-03-30T01:58:49.497Z,963.87
2016-03-30T01:59:49.530Z,963.89
2016-03-30T02:00:49.502Z,963.87
2016-03-30T02:01:49.489Z,963.87
2016-03-30T02:02:49.492Z,963.87
2016-03-30T02:03:49.494Z,963.87
2016-03-30T02:04:49.497Z,963.9
2016-03-30T02:05:49.500Z,963.86
2016-03-30T02:06:49.502Z,963.86
2016-03-30T02:07:49.567Z,963.84
2016-03-30T02:08:49.492Z,963.81
2016-03-30T02:09:49.495Z,963.86
2016-03-30T02:10:49.497Z,963.88
2016-03-30T02:11:49.500Z,963.9
2016-03-30T02:12:49.502Z,963.89
2016-03-30T02:13:49.491Z,963.84
2016-03-30T02:14:49.493Z,963.84
2016-03-30T02:15:49.495Z,963.84
2016-03-30T02:16:49.499Z,963.86
2016-03-30T02:17:49.501Z,963.82
2016-03-30T02:18:49.504Z,963.84
2016-03-30T02:19:49.507Z,963.84
2016-03-30T02:20:49.493Z,963.82
2016-03-30T02:21:49.496Z,963.79
2016-03-30T02:22:49.499Z,963.79
2016-03-30T02:23:49.501Z,963.75
2016-03-30T02:24:49.504Z,963.75
2016-03-30T02:25:49.507Z,963.71
2016-03-30T02:26:49.494Z,963.7
2016-03-30T02:27:49.512Z,963.68
2016-03-30T02:28:49.499Z,963.68
2016-03-30T02:29:49.502Z,963.67
2016-03-30T02:30:49.505Z,963.63
2016-03-30T02:31:49.507Z,963.6
2016-03-30T02:32:49.510Z,963.59
2016-03-30T02:33:49.512Z,963.59
2016-03-30T02:34:49.500Z,963.55
2016-03-30T02:35:49.503Z,963.53
2016-03-30T02:36:49.506Z,963.5
2016-03-30T02:37:49.508Z,963.48
2016-03-30T02:38:49.511Z,963.49
2016-03-30T02:39:49.513Z,963.45
2016-03-30T02:40:49.500Z,963.47
2016-03-30T02:41:49.503Z,963.44
2016-03-30T02:42:49.506Z,963.42
2016-03-30T02:43:49.508Z,963.48
2016-03-30T02:44:49.511Z,963.47
2016-03-30T02:45:49.514Z,963.41
2016-03-30T02:46:49.501Z,963.45
2016-03-30T02:47:49.504Z,963.46
2016-03-30T02:48:49.506Z,963.42
2016-03-30T02:49:49.510Z,963.42
2016-03-30T02:50:49.512Z,963.39
2016-03-30T02:51:49.515Z,963.42
2016-03-30T02:52:49.502Z,963.38
2016-03-30T02:53:49.504Z,963.37
2016-03-30T02:54:49.507Z,963.33
2016-03-30T02:55:49.510Z,963.37
2016-03-30T02:56:49.512Z,963.36
2016-03-30T02:57:49.516Z,963.37
2016-03-30T02:58:49.518Z,963.41
2016-03-30T02:59:49.504Z,963.41
2016-03-30T03:00:49.507Z,963.4
2016-03-30T03:01:49.510Z,963.39
2016-03-30T03:02:49.512Z,963.42
2016-03-30T03:03:49.515Z,963.39
2016-03-30T03:04:49.518Z,963.35
2016-03-30T03:05:49.521Z,963.35
2016-03-30T03:06:49.508Z,963.34
2016-03-30T03:07:49.511Z,963.33
2016-03-30T03:08:49.514Z,963.33
2016-03-30T03:09:49.516Z,963.35
2016-03-30T03:10:49.519Z,963.34
2016-03-30T03:11:49.522Z,963.31
2016-03-30T03:12:49.524Z,963.25
2016-03-30T03:13:49.508Z,963.26
2016-03-30T03:14:49.511Z,963.25
2016-03-30T03:15:49.514Z,963.23
2016-03-30T03:16:49.517Z,963.16
2016-03-30T03:17:49.520Z,963.17
2016-03-30T03:18:49.523Z,963.15
2016-03-30T03:19:49.524Z,963.14
2016-03-30T03:20:49.512Z,963.16
2016-03-30T03:21:49.515Z,963.2
2016-03-30T03:22:49.517Z,963.18
2016-03-30T03:23:49.520Z,963.13
2016-03-30T03:24:49.523Z,963.13
2016-03-30T03:25:49.525Z,963.05
2016-03-30T03:26:49.513Z,963
2016-03-30T03:27:49.516Z,963.02
2016-03-30T03:28:49.518Z,963.01
2016-03-30T03:29:49.521Z,963.04
2016-03-30T03:30:49.524Z,963
2016-03-30T03:31:49.526Z,963.01
2016-03-30T03:32:49.512Z,962.98
2016-03-30T03:33:49.515Z,962.96
2016-03-30T03:34:49.518Z,962.96
2016-03-30T03:35:49.521Z,963
2016-03-30T03:36:49.523Z,962.94
2016-03-30T03:37:49.527Z,962.96
2016-03-30T03:38:49.529Z,962.9
2016-03-30T03:39:49.517Z,962.9
2016-03-30T03:40:49.520Z,962.9
2016-03-30T03:41:49.522Z,962.89
2016-03-30T03:42:49.525Z,962.89
2016-03-30T03:43:49.527Z,962.94
2016-03-30T03:44:49.530Z,962.9
2016-03-30T03:45:49.517Z,962.96
2016-03-30T03:46:49.519Z,962.95
2016-03-30T03:47:49.523Z,962.97
2016-03-30T03:48:49.525Z,962.94
2016-03-30T03:49:49.528Z,962.91
2016-03-30T03:50:49.515Z,962.88
2016-03-30T03:51:49.517Z,962.87
2016-03-30T03:52:49.536Z,962.91
2016-03-30T03:53:49.522Z,962.87
2016-03-30T03:54:49.525Z,962.89
2016-03-30T03:55:49.544Z,962.87
2016-03-30T03:56:49.530Z,962.9
2016-03-30T03:57:49.533Z,962.88
2016-03-30T03:58:49.535Z,962.9
2016-03-30T03:59:49.523Z,962.89
2016-03-30T04:00:49.526Z,962.88
2016-03-30T04:01:49.529Z,962.83
2016-03-30T04:02:49.531Z,962.83
2016-03-30T04:03:49.534Z,962.8
2016-03-30T04:04:49.521Z,962.82
2016-03-30T04:05:49.539Z,962.84
2016-03-30T04:06:49.526Z,962.81
2016-03-30T04:07:49.529Z,962.83
2016-03-30T04:08:49.532Z,962.85
2016-03-30T04:09:49.534Z,962.87
2016-03-30T04:10:49.537Z,962.8
2016-03-30T04:11:49.540Z,962.82
2016-03-30T04:12:49.526Z,962.84
2016-03-30T04:13:49.529Z,962.87
2016-03-30T04:14:49.531Z,962.84
2016-03-30T04:15:49.534Z,962.91
2016-03-30T04:16:49.537Z,962.84
2016-03-30T04:17:49.539Z,962.84
2016-03-30T04:18:49.543Z,962.76
2016-03-30T04:19:49.530Z,962.88
2016-03-30T04:20:49.533Z,962.89
2016-03-30T04:21:49.536Z,962.9
2016-03-30T04:22:49.539Z,962.88
2016-03-30T04:23:49.541Z,962.88
2016-03-30T04:24:49.544Z,962.89
2016-03-30T04:25:49.530Z,962.92
2016-03-30T04:26:49.533Z,962.89
2016-03-30T04:27:49.536Z,962.85
2016-03-30T04:28:49.539Z,962.84
2016-03-30T04:29:49.542Z,962.81
2016-03-30T04:30:49.529Z,962.81
2016-03-30T04:31:49.532Z,962.79
2016-03-30T04:32:49.535Z,962.8
2016-03-30T04:33:49.537Z,962.79
2016-03-30T04:34:49.540Z,962.78
2016-03-30T04:35:49.542Z,962.78
2016-03-30T04:36:49.545Z,962.79
2016-03-30T04:37:49.548Z,962.8
2016-03-30T04:38:49.534Z,962.82
2016-03-30T04:39:49.537Z,962.79
2016-03-30T04:40:49.539Z,962.82
2016-03-30T04:41:49.542Z,962.83
2016-03-30T04:42:49.545Z,962.82
2016-03-30T04:43:49.531Z,962.81
2016-03-30T04:44:49.551Z,962.74
2016-03-30T04:45:49.537Z,962.74
2016-03-30T04:46:49.540Z,962.76
2016-03-30T04:47:49.543Z,962.78
2016-03-30T04:48:49.546Z,962.75
2016-03-30T04:49:49.533Z,962.8
2016-03-30T04:50:49.536Z,962.79
2016-03-30T04:51:49.538Z,962.79
2016-03-30T04:52:49.541Z,962.76
2016-03-30T04:53:49.544Z,962.79
2016-03-30T04:54:49.546Z,962.79
2016-03-30T04:55:49.549Z,962.79
2016-03-30T04:56:49.535Z,962.8
2016-03-30T04:57:49.538Z,962.77
2016-03-30T04:58:49.541Z,962.8
2016-03-30T04:59:49.543Z,962.85
2016-03-30T05:00:49.547Z,962.82
2016-03-30T05:01:49.549Z,962.85
2016-03-30T05:02:49.536Z,962.83
2016-03-30T05:03:49.539Z,962.84
2016-03-30T05:04:49.541Z,962.83
2016-03-30T05:05:49.544Z,962.83
2016-03-30T05:06:49.546Z,962.85
2016-03-30T05:07:49.549Z,962.87
2016-03-30T05:08:49.552Z,962.85
2016-03-30T05:09:49.540Z,962.87
2016-03-30T05:10:49.543Z,962.87
2016-03-30T05:11:49.545Z,962.89
2016-03-30T05:12:49.548Z,962.89
2016-03-30T05:13:49.551Z,962.9
2016-03-30T05:14:49.554Z,962.89
2016-03-30T05:15:49.540Z,962.89
2016-03-30T05:16:49.543Z,962.92
2016-03-30T05:17:49.545Z,962.89
2016-03-30T05:18:49.548Z,962.88
2016-03-30T05:19:49.550Z,962.89
2016-03-30T05:20:49.553Z,962.93
2016-03-30T05:21:49.541Z,962.94
2016-03-30T05:22:49.543Z,962.92
2016-03-30T05:23:49.546Z,962.94
2016-03-30T05:24:49.549Z,962.94
2016-03-30T05:25:49.552Z,962.94
2016-03-30T05:26:49.555Z,962.96
2016-03-30T05:27:49.541Z,962.95
2016-03-30T05:28:49.544Z,962.94
2016-03-30T05:29:49.547Z,962.97
2016-03-30T05:30:49.549Z,963
2016-03-30T05:31:49.552Z,962.98
2016-03-30T05:32:49.554Z,963.01
2016-03-30T05:33:49.557Z,963.02
2016-03-30T05:34:49.544Z,963.01
2016-03-30T05:35:49.546Z,963.03
2016-03-30T05:36:49.549Z,963.01
2016-03-30T05:37:49.551Z,963
2016-03-30T05:38:49.554Z,963.02
2016-03-30T05:39:49.557Z,963.01
2016-03-30T05:40:49.560Z,963.02
2016-03-30T05:41:49.548Z,963.03
2016-03-30T05:42:49.551Z,963.03
2016-03-30T05:43:49.553Z,963.06
2016-03-30T05:44:49.556Z,963.04
2016-03-30T05:45:49.559Z,963.05
2016-03-30T05:46:49.561Z,963.08
2016-03-30T05:47:49.548Z,963.1
2016-03-30T05:48:49.550Z,963.1
2016-03-30T05:49:49.553Z,963.11
2016-03-30T05:50:49.556Z,963.14
2016-03-30T05:51:49.558Z,963.19
2016-03-30T05:52:49.546Z,963.15
2016-03-30T05:53:49.548Z,963.19
2016-03-30T05:54:49.551Z,963.23
2016-03-30T05:55:49.554Z,963.27
2016-03-30T05:56:49.556Z,963.26
2016-03-30T05:57:49.559Z,963.26
2016-03-30T05:58:49.561Z,963.23
2016-03-30T05:59:49.549Z,963.26
2016-03-30T06:00:49.567Z,963.25
2016-03-30T06:01:49.555Z,963.25
2016-03-30T06:02:49.557Z,963.28
2016-03-30T06:03:49.560Z,963.27
2016-03-30T06:04:49.562Z,963.29
2016-03-30T06:05:49.565Z,963.27
2016-03-30T06:06:49.568Z,963.35
2016-03-30T06:07:49.555Z,963.29
2016-03-30T06:08:49.558Z,963.3
2016-03-30T06:09:49.560Z,963.29
2016-03-30T06:10:49.563Z,963.3
2016-03-30T06:11:49.566Z,963.34
2016-03-30T06:12:49.568Z,963.3
2016-03-30T06:13:49.556Z,963.35
2016-03-30T06:14:49.558Z,963.32
2016-03-30T06:15:49.561Z,963.36
2016-03-30T06:16:49.564Z,963.37
2016-03-30T06:17:49.566Z,963.41
2016-03-30T06:18:49.569Z,963.46
2016-03-30T06:19:49.571Z,963.45
2016-03-30T06:20:49.558Z,963.46
2016-03-30T06:21:49.561Z,963.46
2016-03-30T06:22:49.563Z,963.49
2016-03-30T06:23:49.566Z,963.45
2016-03-30T06:24:49.569Z,963.44
2016-03-30T06:25:49.572Z,963.49
2016-03-30T06:26:49.559Z,963.49
2016-03-30T06:27:49.562Z,963.46
2016-03-30T06:28:49.564Z,963.46
2016-03-30T06:29:49.567Z,963.46
2016-03-30T06:30:49.569Z,963.42
2016-03-30T06:31:49.572Z,963.5
2016-03-30T06:32:49.575Z,963.49
2016-03-30T06:33:49.577Z,963.52
2016-03-30T06:34:49.566Z,963.52
2016-03-30T06:35:49.568Z,963.52
2016-03-30T06:36:49.571Z,963.48
2016-03-30T06:37:49.574Z,963.54
2016-03-30T06:38:49.576Z,963.52
2016-03-30T06:39:49.579Z,963.55
2016-03-30T06:40:49.581Z,963.56
2016-03-30T06:41:49.584Z,963.55
2016-03-30T06:42:49.571Z,963.55
2016-03-30T06:43:49.573Z,963.56
2016-03-30T06:44:49.576Z,963.55
2016-03-30T06:45:49.578Z,963.55
2016-03-30T06:46:49.582Z,963.56
2016-03-30T06:47:49.584Z,963.53
2016-03-30T06:48:49.587Z,963.56
2016-03-30T06:49:49.574Z,963.59
2016-03-30T06:50:49.576Z,963.57
2016-03-30T06:51:49.579Z,963.59
2016-03-30T06:52:49.581Z,963.6
2016-03-30T06:53:49.584Z,963.59
2016-03-30T06:54:49.587Z,963.63
2016-03-30T06:55:49.589Z,963.58
2016-03-30T06:56:49.577Z,963.58
2016-03-30T06:57:49.580Z,963.61
2016-03-30T06:58:49.582Z,963.6
2016-03-30T06:59:49.586Z,963.61
2016-03-30T07:00:49.588Z,963.62
2016-03-30T07:01:49.591Z,963.58
2016-03-30T07:02:49.594Z,963.54
2016-03-30T07:03:49.596Z,963.57
2016-03-30T07:04:49.599Z,963.61
2016-03-30T07:05:49.602Z,963.62
2016-03-30T07:06:49.588Z,963.56
2016-03-30T07:07:49.592Z,963.59
2016-03-30T07:08:49.594Z,963.59
2016-03-30T07:09:49.597Z,963.61
2016-03-30T07:10:49.600Z,963.61
2016-03-30T07:11:49.602Z,963.61
2016-03-30T07:12:49.605Z,963.63
2016-03-30T07:13:49.608Z,963.6
2016-03-30T07:14:49.611Z,963.64
2016-03-30T07:15:49.599Z,963.64
2016-03-30T07:16:49.601Z,963.59
2016-03-30T07:17:49.604Z,963.59
2016-03-30T07:18:49.607Z,963.63
2016-03-30T07:19:49.609Z,963.63
2016-03-30T07:20:49.612Z,963.61
2016-03-30T07:21:49.614Z,963.62
2016-03-30T07:22:49.617Z,963.63
2016-03-30T07:23:49.620Z,963.59
2016-03-30T07:24:49.622Z,963.57
2016-03-30T07:25:49.625Z,963.6
2016-03-30T07:26:49.628Z,963.59
2016-03-30T07:27:49.615Z,963.54
2016-03-30T07:28:49.618Z,963.52
2016-03-30T07:29:49.620Z,963.53
2016-03-30T07:30:49.623Z,963.55
2016-03-30T07:31:49.626Z,963.52
2016-03-30T07:32:49.628Z,963.55
2016-03-30T07:33:49.631Z,963.56
2016-03-30T07:34:49.633Z,963.53
2016-03-30T07:35:49.636Z,963.53
2016-03-30T07:36:49.639Z,963.54
2016-03-30T07:37:49.642Z,963.51
2016-03-30T07:38:49.645Z,963.56
2016-03-30T07:39:49.631Z,963.55
2016-03-30T07:40:49.634Z,963.54
2016-03-30T07:41:49.636Z,963.52
2016-03-30T07:42:49.639Z,963.55
2016-03-30T07:43:49.642Z,963.61
2016-03-30T07:44:49.645Z,963.57
2016-03-30T07:45:49.648Z,963.59
2016-03-30T07:46:49.650Z,963.51
2016-03-30T07:47:49.653Z,963.54
2016-03-30T07:48:49.655Z,963.56
2016-03-30T07:49:49.658Z,963.57
2016-03-30T07:50:49.661Z,963.58
2016-03-30T07:51:49.664Z,963.58
2016-03-30T07:52:49.666Z,963.53
2016-03-30T07:53:49.668Z,963.57
2016-03-30T07:54:49.671Z,963.58
2016-03-30T07:55:49.659Z,963.58
2016-03-30T07:56:49.662Z,963.55
2016-03-30T07:57:49.664Z,963.57
2016-03-30T07:58:49.667Z,963.53
2016-03-30T07:59:49.670Z,963.54
2016-03-30T08:00:49.673Z,963.52
2016-03-30T08:01:49.675Z,963.48
2016-03-30T08:02:49.678Z,963.49
2016-03-30T08:03:49.681Z,963.47
2016-03-30T08:04:49.765Z,963.46
2016-03-30T08:05:49.680Z,963.49
2016-03-30T08:06:49.686Z,963.52
2016-03-30T08:07:49.679Z,963.51
2016-03-30T08:08:49.672Z,963.53
2016-03-30T08:09:49.678Z,963.55
2016-03-30T08:10:49.681Z,963.53
2016-03-30T08:11:49.684Z,963.56
2016-03-30T08:12:49.687Z,963.54
2016-03-30T08:13:49.690Z,963.55
2016-03-30T08:14:49.692Z,963.55
2016-03-30T08:15:49.695Z,963.56
2016-03-30T08:16:49.697Z,963.55
2016-03-30T08:17:49.701Z,963.57
2016-03-30T08:18:49.703Z,963.57
2016-03-30T08:19:49.706Z,963.53
2016-03-30T08:20:49.708Z,963.56
2016-03-30T08:21:49.711Z,963.6
2016-03-30T08:22:49.698Z,963.53
2016-03-30T08:23:49.716Z,963.52
2016-03-30T08:24:49.704Z,963.53
2016-03-30T08:25:49.706Z,963.5
2016-03-30T08:26:49.709Z,963.49
2016-03-30T08:27:49.711Z,963.49
2016-03-30T08:28:49.730Z,963.44
2016-03-30T08:29:49.717Z,963.43
2016-03-30T08:30:49.736Z,963.44
2016-03-30T08:31:49.723Z,963.44
2016-03-30T08:32:49.726Z,963.4
2016-03-30T08:33:49.744Z,963.36
2016-03-30T08:34:49.747Z,963.42
2016-03-30T08:35:49.740Z,963.37
2016-03-30T08:36:49.742Z,963.42
2016-03-30T08:37:49.745Z,963.4
2016-03-30T08:38:49.748Z,963.43
2016-03-30T08:39:49.750Z,963.42
2016-03-30T08:40:49.753Z,963.42
2016-03-30T08:41:49.755Z,963.39
2016-03-30T08:42:49.758Z,963.39
2016-03-30T08:43:49.753Z,963.4
2016-03-30T08:44:49.756Z,963.39
2016-03-30T08:45:49.773Z,963.41
2016-03-30T08:46:49.761Z,963.38
2016-03-30T08:47:49.764Z,963.39
2016-03-30T08:48:49.767Z,963.42
2016-03-30T08:49:49.784Z,963.4
2016-03-30T08:50:49.772Z,963.45
2016-03-30T08:51:49.821Z,963.49
2016-03-30T08:52:49.778Z,963.46
2016-03-30T08:53:49.780Z,963.48
2016-03-30T08:54:49.783Z,963.44
2016-03-30T08:55:49.786Z,963.42
2016-03-30T08:56:49.789Z,963.39
2016-03-30T08:57:49.791Z,963.39
2016-03-30T08:58:49.793Z,963.38
2016-03-30T08:59:49.797Z,963.39
2016-03-30T09:00:49.799Z,963.4
2016-03-30T09:01:49.802Z,963.37
2016-03-30T09:02:49.804Z,963.36
2016-03-30T09:03:49.807Z,963.39
2016-03-30T09:04:49.810Z,963.33
2016-03-30T09:05:49.813Z,963.36
2016-03-30T09:06:49.815Z,963.38
2016-03-30T09:07:49.818Z,963.41
2016-03-30T09:08:49.820Z,963.41
2016-03-30T09:09:49.824Z,963.43
2016-03-30T09:10:49.826Z,963.42
2016-03-30T09:11:49.829Z,963.4
2016-03-30T09:12:49.832Z,963.43
2016-03-30T09:13:49.835Z,963.44
2016-03-30T09:14:49.837Z,963.41
2016-03-30T09:15:49.840Z,963.37
2016-03-30T09:16:49.843Z,963.36
2016-03-30T09:17:49.845Z,963.34
2016-03-30T09:18:49.848Z,963.36
2016-03-30T09:19:49.850Z,963.39
2016-03-30T09:20:49.854Z,963.41
2016-03-30T09:21:49.840Z,963.45
2016-03-30T09:22:49.859Z,963.44
2016-03-30T09:23:49.845Z,963.42
2016-03-30T09:24:49.847Z,963.47
2016-03-30T09:25:49.850Z,963.46
2016-03-30T09:26:49.870Z,963.45
2016-03-30T09:27:49.856Z,963.46
2016-03-30T09:28:49.858Z,963.44
2016-03-30T09:29:49.861Z,963.48
2016-03-30T09:30:49.864Z,963.51
2016-03-30T09:31:49.867Z,963.51
2016-03-30T09:32:49.869Z,963.53
2016-03-30T09:33:49.872Z,963.52
2016-03-30T09:34:49.875Z,963.53
2016-03-30T09:35:49.878Z,963.53
2016-03-30T09:36:49.880Z,963.53
2016-03-30T09:37:49.883Z,963.49
2016-03-30T09:38:49.885Z,963.5
2016-03-30T09:39:49.888Z,963.47
2016-03-30T09:40:49.891Z,963.49
2016-03-30T09:41:49.894Z,963.52
2016-03-30T09:42:49.896Z,963.5
2016-03-30T09:43:49.899Z,963.5
2016-03-30T09:44:49.902Z,963.49
2016-03-30T09:45:49.904Z,963.49
2016-03-30T09:46:49.907Z,963.5
2016-03-30T09:47:49.910Z,963.51
2016-03-30T09:48:49.912Z,963.49
2016-03-30T09:49:49.915Z,963.54
2016-03-30T09:50:49.902Z,963.51
2016-03-30T09:51:49.905Z,963.55
2016-03-30T09:52:49.907Z,963.55
2016-03-30T09:53:49.926Z,963.56
2016-03-30T09:54:49.913Z,963.61
2016-03-30T09:55:49.931Z,963.6
2016-03-30T09:56:49.918Z,963.57
2016-03-30T09:57:49.921Z,963.53
2016-03-30T09:58:49.923Z,963.59
2016-03-30T09:59:49.926Z,963.58
2016-03-30T10:00:50.085Z,963.64
2016-03-30T10:01:49.932Z,963.62
2016-03-30T10:02:49.934Z,963.61
2016-03-30T10:03:49.937Z,963.6
2016-03-30T10:04:49.939Z,963.61
2016-03-30T10:05:49.942Z,963.6
2016-03-30T10:06:49.945Z,963.6
2016-03-30T10:07:49.948Z,963.61
2016-03-30T10:08:49.951Z,963.64
2016-03-30T10:09:49.953Z,963.6
2016-03-30T10:10:49.955Z,963.62
2016-03-30T10:11:49.958Z,963.61
2016-03-30T10:12:49.958Z,963.54
2016-03-30T10:13:49.936Z,963.54
2016-03-30T10:14:49.928Z,963.56
2016-03-30T10:15:49.952Z,963.59
2016-03-30T10:16:49.912Z,963.58
2016-03-30T10:17:49.907Z,963.59
2016-03-30T10:18:49.905Z,963.55
2016-03-30T10:19:49.905Z,963.55
2016-03-30T10:20:49.903Z,963.57
2016-03-30T10:21:49.902Z,963.58
2016-03-30T10:22:49.901Z,963.59
2016-03-30T10:23:49.918Z,963.58
2016-03-30T10:24:49.904Z,963.6
2016-03-30T10:25:49.905Z,963.6
2016-03-30T10:26:49.906Z,963.62
2016-03-30T10:27:49.908Z,963.6
2016-03-30T10:28:49.910Z,963.6
2016-03-30T10:29:49.912Z,963.56
2016-03-30T10:30:49.914Z,963.59
2016-03-30T10:31:49.917Z,963.58
2016-03-30T10:32:49.919Z,963.58
2016-03-30T10:33:49.922Z,963.56
2016-03-30T10:34:49.924Z,963.53
2016-03-30T10:35:49.928Z,963.55
2016-03-30T10:36:49.930Z,963.48
2016-03-30T10:37:49.933Z,963.49
2016-03-30T10:38:49.935Z,963.49
2016-03-30T10:39:49.922Z,963.49
2016-03-30T10:40:49.940Z,963.47
2016-03-30T10:41:49.928Z,963.44
2016-03-30T10:42:49.930Z,963.46
2016-03-30T10:43:49.933Z,963.48
2016-03-30T10:44:49.936Z,963.47
2016-03-30T10:45:49.985Z,963.47
2016-03-30T10:46:49.940Z,963.46
2016-03-30T10:47:49.943Z,963.44
2016-03-30T10:48:49.946Z,963.49
2016-03-30T10:49:49.949Z,963.49
2016-03-30T10:50:49.952Z,963.58
2016-03-30T10:51:49.954Z,963.54
2016-03-30T10:52:49.957Z,963.52
2016-03-30T10:53:49.960Z,963.51
2016-03-30T10:54:49.962Z,963.53
2016-03-30T10:55:49.965Z,963.5
2016-03-30T10:56:49.967Z,963.48
2016-03-30T10:57:49.970Z,963.49
2016-03-30T10:58:49.973Z,963.46
2016-03-30T10:59:49.976Z,963.5
2016-03-30T11:00:49.978Z,963.45
2016-03-30T11:01:49.981Z,963.46
2016-03-30T11:02:49.984Z,963.41
2016-03-30T11:03:49.986Z,963.44
2016-03-30T11:04:49.990Z,963.44
2016-03-30T11:05:49.992Z,963.47
2016-03-30T11:06:49.995Z,963.52
2016-03-30T11:07:49.997Z,963.5
2016-03-30T11:08:50.000Z,963.5
2016-03-30T11:09:50.002Z,963.47
2016-03-30T11:10:50.005Z,963.53
2016-03-30T11:11:50.008Z,963.53
2016-03-30T11:12:50.011Z,963.52
2016-03-30T11:13:50.013Z,963.59
2016-03-30T11:14:50.016Z,963.53
2016-03-30T11:15:50.018Z,963.58
2016-03-30T11:16:50.022Z,963.57
2016-03-30T11:17:50.024Z,963.57
2016-03-30T11:18:50.027Z,963.61
2016-03-30T11:19:50.029Z,963.63
2016-03-30T11:20:50.016Z,963.59
2016-03-30T11:21:50.019Z,963.63
2016-03-30T11:22:50.038Z,963.59
2016-03-30T11:23:50.040Z,963.59
2016-03-30T11:24:50.043Z,963.62
2016-03-30T11:25:50.046Z,963.63
2016-03-30T11:26:50.048Z,963.68
2016-03-30T11:27:50.051Z,963.67
2016-03-30T11:28:50.054Z,963.68
2016-03-30T11:29:50.056Z,963.69
2016-03-30T11:30:50.059Z,963.58
2016-03-30T11:31:50.062Z,963.77
2016-03-30T11:32:50.065Z,963.75
2016-03-30T11:33:50.067Z,963.77
2016-03-30T11:34:50.070Z,963.83
2016-03-30T11:35:50.072Z,963.78
2016-03-30T11:36:50.075Z,963.7
2016-03-30T11:37:50.078Z,963.7
2016-03-30T11:38:50.081Z,963.75
2016-03-30T11:39:50.084Z,963.77
2016-03-30T11:40:50.086Z,963.75
2016-03-30T11:41:50.089Z,963.77
2016-03-30T11:42:50.091Z,963.69
2016-03-30T11:43:50.094Z,963.79
2016-03-30T11:44:50.097Z,963.76
2016-03-30T11:45:50.100Z,963.79
2016-03-30T11:46:50.102Z,963.68
2016-03-30T11:47:50.104Z,963.76
2016-03-30T11:48:50.107Z,963.78
2016-03-30T11:49:50.110Z,963.81
2016-03-30T11:50:50.113Z,963.68
2016-03-30T11:51:50.115Z,963.73
2016-03-30T11:52:50.118Z,963.78
2016-03-30T11:53:50.121Z,963.78
2016-03-30T11:54:50.124Z,963.73
2016-03-30T11:55:50.127Z,963.76
2016-03-30T11:56:50.129Z,963.71
2016-03-30T11:57:50.131Z,963.77
2016-03-30T11:58:50.135Z,963.72
2016-03-30T11:59:50.137Z,963.74
2016-03-30T12:00:50.140Z,963.76
2016-03-30T12:01:50.142Z,963.75
2016-03-30T12:02:50.145Z,963.77
2016-03-30T12:03:50.148Z,963.8
2016-03-30T12:04:50.167Z,963.8
2016-03-30T12:05:50.153Z,963.79
2016-03-30T12:06:50.155Z,963.71
2016-03-30T12:07:50.174Z,963.66
2016-03-30T12:08:50.178Z,963.61
2016-03-30T12:09:50.168Z,963.63
2016-03-30T12:10:50.171Z,963.62
2016-03-30T12:11:50.173Z,963.61
2016-03-30T12:12:50.176Z,963.56
2016-03-30T12:13:50.194Z,963.59
2016-03-30T12:14:50.182Z,963.57
2016-03-30T12:15:50.200Z,963.53
2016-03-30T12:16:50.202Z,963.49
2016-03-30T12:17:50.189Z,963.5
2016-03-30T12:18:50.209Z,963.52
2016-03-30T12:19:50.211Z,963.54
2016-03-30T12:20:50.214Z,963.6
2016-03-30T12:21:50.216Z,963.51
2016-03-30T12:22:50.219Z,963.52
2016-03-30T12:23:50.222Z,963.49
2016-03-30T12:24:50.225Z,963.53
2016-03-30T12:25:50.227Z,963.57
2016-03-30T12:26:50.229Z,963.53
2016-03-30T12:27:50.232Z,963.51
2016-03-30T12:28:50.235Z,963.41
2016-03-30T12:29:50.238Z,963.38
2016-03-30T12:30:50.241Z,963.41
2016-03-30T12:31:50.243Z,963.43